Richlands, North Carolina
Current Conditions -  °F | °C
As of 2:15 AM on Friday 31 Oct 2014 (Local Time) from KOAJ Reporting Station
Clear Clear  
Wind Chill: 46°   Ceiling: Unl
Heat Index: 48°   Visibility: 9mi
Dew Point: 45°   Wind: 6mph
Humidity: 87%   Direction: 360°N
Pressure: 29.95"   Gusts: NA
Location:  34.9°N, 77.55°W
Report Text: KOAJ 310615Z AUTO 36005KT 9SM CLR 09/07 A2995 RMK AO1
Loading
Personal Weather Stations






























Interactive Weather Map
Tropical Storm Tracking
New forecast layout! Learn more

10-Day Weather Forecast

Advertisements
Track Severe Weather on mobile